createdAt,value
2022-08-02T00:07:53.489Z,98290
2022-08-02T00:19:53.478Z,98290
2022-08-02T00:31:53.475Z,98290
2022-08-02T00:43:53.437Z,98310
2022-08-02T00:55:54.028Z,98300
2022-08-02T01:07:53.488Z,98300
2022-08-02T01:19:53.422Z,98300
2022-08-02T01:31:53.462Z,98290
2022-08-02T01:43:53.458Z,98280
2022-08-02T01:55:58.504Z,98300
2022-08-02T02:07:53.447Z,98300
2022-08-02T02:19:53.910Z,98290
2022-08-02T02:31:53.556Z,98280
2022-08-02T02:43:53.869Z,98280
2022-08-02T02:56:01.619Z,98270
2022-08-02T03:07:53.458Z,98280
2022-08-02T03:19:53.475Z,98270
2022-08-02T03:31:53.505Z,98270
2022-08-02T03:43:53.463Z,98260
2022-08-02T03:55:55.636Z,98260
2022-08-02T04:08:33.960Z,98260
2022-08-02T04:19:53.480Z,98270
2022-08-02T04:31:53.439Z,98280
2022-08-02T04:43:53.443Z,98280
2022-08-02T04:55:53.468Z,98290
2022-08-02T05:07:53.464Z,98300
2022-08-02T05:19:53.445Z,98290
2022-08-02T05:31:53.457Z,98300
2022-08-02T05:43:53.449Z,98300
2022-08-02T05:55:53.485Z,98300
2022-08-02T06:07:53.441Z,98300
2022-08-02T06:19:53.476Z,98290
2022-08-02T06:31:53.481Z,98290
2022-08-02T06:43:53.451Z,98290
2022-08-02T06:55:53.465Z,98290
2022-08-02T07:07:53.451Z,98290
2022-08-02T07:19:53.461Z,98280
2022-08-02T07:31:53.457Z,98270
2022-08-02T07:43:53.451Z,98270
2022-08-02T07:55:53.476Z,98280
2022-08-02T08:07:53.462Z,98260
2022-08-02T08:19:53.583Z,98260
2022-08-02T08:31:53.448Z,98260
2022-08-02T08:43:53.581Z,98250
2022-08-02T08:55:53.450Z,98240
2022-08-02T09:07:53.416Z,98230
2022-08-02T09:19:53.457Z,98220
2022-08-02T09:31:53.447Z,98220
2022-08-02T09:44:05.220Z,98230
2022-08-02T09:55:53.468Z,98220
2022-08-02T10:07:53.441Z,98210
2022-08-02T10:20:01.899Z,98200
2022-08-02T10:31:53.458Z,98180
2022-08-02T10:43:53.451Z,98170
2022-08-02T10:55:53.472Z,98160
2022-08-02T11:07:53.465Z,98150
2022-08-02T11:19:53.461Z,98130
2022-08-02T11:31:53.415Z,98120
2022-08-02T11:43:53.438Z,98110
2022-08-02T11:55:53.474Z,98100
2022-08-02T12:07:53.490Z,98100
2022-08-02T12:19:53.481Z,98100
2022-08-02T12:31:57.656Z,98090
2022-08-02T12:43:53.458Z,98090
2022-08-02T12:56:01.108Z,98080
2022-08-02T13:07:53.435Z,98070
2022-08-02T13:19:53.520Z,98050
2022-08-02T13:31:53.486Z,98040
2022-08-02T13:43:57.816Z,98030
2022-08-02T13:55:56.250Z,98030
2022-08-02T14:07:53.466Z,98010
2022-08-02T14:19:53.480Z,98010
2022-08-02T14:31:53.915Z,97990
2022-08-02T14:43:53.457Z,98000
2022-08-02T14:55:53.467Z,97990
2022-08-02T15:07:53.454Z,97980
2022-08-02T15:19:58.118Z,97980
2022-08-02T15:31:53.460Z,97980
2022-08-02T15:44:00.654Z,97970
2022-08-02T15:56:05.337Z,97960
2022-08-02T16:07:53.461Z,97960
2022-08-02T16:19:56.099Z,97950
2022-08-02T16:31:53.432Z,97930
2022-08-02T16:43:53.468Z,97930
2022-08-02T16:55:53.481Z,97940
2022-08-02T17:08:16.337Z,97920
2022-08-02T17:19:53.475Z,97920
2022-08-02T17:32:12.634Z,97920
2022-08-02T17:43:53.483Z,97920
2022-08-02T17:55:53.470Z,97920
2022-08-02T18:07:56.760Z,97930
2022-08-02T18:19:56.668Z,97930
2022-08-02T18:31:53.468Z,97930
2022-08-02T18:43:53.474Z,97930
2022-08-02T18:55:59.900Z,97930
2022-08-02T19:07:53.434Z,97940
2022-08-02T19:19:53.477Z,97940
2022-08-02T19:31:59.954Z,97940
2022-08-02T19:44:23.453Z,97950
2022-08-02T19:55:59.640Z,97960
2022-08-02T20:07:56.197Z,97960
2022-08-02T20:19:53.472Z,97970
2022-08-02T20:31:53.498Z,97980
2022-08-02T20:43:53.454Z,97980
2022-08-02T20:55:53.469Z,97990
2022-08-02T21:07:55.018Z,97990
2022-08-02T21:19:53.463Z,97990
2022-08-02T21:31:53.467Z,98000
2022-08-02T21:43:53.474Z,98000
2022-08-02T21:56:00.656Z,98000
2022-08-02T22:07:53.464Z,98010
2022-08-02T22:19:54.557Z,98010
2022-08-02T22:31:53.457Z,98020
2022-08-02T22:43:53.450Z,98020
2022-08-02T22:55:53.456Z,98020
2022-08-02T23:07:53.440Z,98030
2022-08-02T23:19:53.455Z,98030
2022-08-02T23:31:53.478Z,98030
2022-08-02T23:44:12.580Z,98040
2022-08-02T23:55:53.461Z,98040
